Terminal Aerodrome Forecast
Issued by NWS Cleveland, OH

Home | Current Version | Previous Version | Graphics & Text | Print | Product List | Glossary On
Versions: 1 2 3 4 5 6 7 8 9 10 11 12 13 14 15 16 17 18 19 20 21 22 23 24 25 26 27 28 29 30 31 32 33 34 35 36 37 38 39 40 41
000
FTUS41 KCLE 020600 AAA
TAFCLE
TAF AMD
KCLE 020656Z 0207/0312 28012KT 6SM -SN BR OVC015
      TEMPO 0208/0212 3SM -SN BR
     FM021500 28014KT P6SM -SN OVC025
     FM021800 28011KT P6SM SCT035 BKN250
     FM030200 28004KT P6SM SCT120 BKN250
     FM030800 14004KT P6SM SCT045 OVC100=

USA.gov is the U.S. government's official web portal to all federal, state and local government web resources and services.